Time;durP1;ratioP1;P1;durP2;ratioP2;P2;SDS_P1;SDS_P2;PMS_P1;PMS_P2;Temp;Humidity;BMP_temperature;BMP_pressure;BME280_temperature;BME280_humidity;BME280_pressure;Samples;Min_cycle;Max_cycle;Signal;HPM_P1;HPM_P2
2021/12/11 00:01:16;;;;;;;;;;;20.60;39.50;;;;;;5091614;28;19908;-61
2021/12/11 00:03:42;;;;;;;;;;;20.50;39.40;;;;;;5096947;28;19912;-60
2021/12/11 00:06:09;;;;;;;;;;;20.60;39.50;;;;;;5072696;28;20003;-60
2021/12/11 00:08:35;;;;;;;;;;;20.50;39.40;;;;;;5072489;28;19995;-60
2021/12/11 00:11:02;;;;;;;;;;;20.60;39.50;;;;;;5072472;28;20020;-61
2021/12/11 00:13:28;;;;;;;;;;;20.60;39.50;;;;;;5072244;28;19959;-60
2021/12/11 00:15:54;;;;;;;;;;;20.50;39.40;;;;;;5092261;28;19974;-60
2021/12/11 00:18:21;;;;;;;;;;;20.50;39.40;;;;;;5087426;28;20043;-60
2021/12/11 00:20:51;;;;;;;;;;;20.50;39.40;;;;;;5072031;28;19995;-61
2021/12/11 00:23:18;;;;;;;;;;;20.50;39.40;;;;;;5092570;28;19913;-61
2021/12/11 00:25:43;;;;;;;;;;;20.50;39.40;;;;;;5090618;28;19919;-61
2021/12/11 00:28:09;;;;;;;;;;;20.50;39.40;;;;;;5079285;28;20007;-61
2021/12/11 00:30:36;;;;;;;;;;;20.50;39.40;;;;;;5086631;28;20378;-61
2021/12/11 00:33:04;;;;;;;;;;;20.50;39.40;;;;;;5072358;28;19909;-61
2021/12/11 00:35:29;;;;;;;;;;;20.50;39.40;;;;;;5088410;28;19927;-60
2021/12/11 00:38:07;;;;;;;;;;;20.50;39.40;;;;;;5091629;28;19916;-60
2021/12/11 00:40:32;;;;;;;;;;;20.50;39.40;;;;;;5088452;28;19923;-60
2021/12/11 00:43:01;;;;;;;;;;;20.50;39.40;;;;;;5091255;28;19908;-61
2021/12/11 00:45:28;;;;;;;;;;;20.50;39.40;;;;;;5090083;28;19915;-61
2021/12/11 00:47:58;;;;;;;;;;;20.50;39.30;;;;;;5072038;28;19962;-61
2021/12/11 00:50:27;;;;;;;;;;;20.50;39.30;;;;;;5088009;28;19920;-61
2021/12/11 00:52:57;;;;;;;;;;;20.50;39.40;;;;;;5092168;28;20343;-60
2021/12/11 00:55:23;;;;;;;;;;;20.50;39.80;;;;;;5088276;28;19912;-61
2021/12/11 00:57:49;;;;;;;;;;;20.40;39.20;;;;;;5072124;28;20379;-61
2021/12/11 01:00:16;;;;;;;;;;;20.40;39.30;;;;;;5071616;28;20282;-61
2021/12/11 01:02:42;;;;;;;;;;;20.40;39.30;;;;;;5087557;28;20394;-60
2021/12/11 01:05:07;;;;;;;;;;;20.40;39.30;;;;;;5086865;28;19909;-61
2021/12/11 01:07:33;;;;;;;;;;;20.40;39.30;;;;;;5071683;28;19916;-61
2021/12/11 01:10:00;;;;;;;;;;;20.40;39.30;;;;;;5070717;28;19909;-61
2021/12/11 01:12:36;;;;;;;;;;;20.40;39.30;;;;;;5087009;28;20398;-60
2021/12/11 01:15:14;;;;;;;;;;;20.40;39.30;;;;;;5078297;28;19919;-60
2021/12/11 01:17:49;;;;;;;;;;;20.40;40.00;;;;;;5104431;28;20364;-60
2021/12/11 01:20:19;;;;;;;;;;;20.40;39.30;;;;;;5092544;28;19913;-61
2021/12/11 01:22:45;;;;;;;;;;;20.40;39.20;;;;;;5070472;28;19908;-60
2021/12/11 01:25:13;;;;;;;;;;;20.40;39.20;;;;;;5089392;28;19916;-60
2021/12/11 01:27:39;;;;;;;;;;;20.40;39.20;;;;;;5090446;28;19909;-61
2021/12/11 01:30:05;;;;;;;;;;;20.40;39.20;;;;;;5087861;28;19912;-60
2021/12/11 01:32:31;;;;;;;;;;;20.40;39.30;;;;;;5084457;28;19923;-60
2021/12/11 01:34:57;;;;;;;;;;;20.40;39.30;;;;;;5090305;28;19931;-60
2021/12/11 01:37:23;;;;;;;;;;;20.40;39.20;;;;;;5081540;28;20379;-61
2021/12/11 01:39:48;;;;;;;;;;;20.40;39.20;;;;;;5092050;28;19909;-60
2021/12/11 01:42:15;;;;;;;;;;;20.40;39.20;;;;;;5075320;28;19916;-61
2021/12/11 01:44:42;;;;;;;;;;;20.30;39.30;;;;;;5083996;28;20299;-61
2021/12/11 01:47:09;;;;;;;;;;;20.30;39.20;;;;;;5075272;28;19958;-61
2021/12/11 01:49:35;;;;;;;;;;;20.30;39.10;;;;;;5089786;28;19915;-61
2021/12/11 01:52:03;;;;;;;;;;;20.30;39.20;;;;;;5090774;28;20323;-61
2021/12/11 01:54:30;;;;;;;;;;;20.30;39.20;;;;;;5073400;28;19961;-61
2021/12/11 01:57:01;;;;;;;;;;;20.30;39.20;;;;;;5091265;28;19924;-60
2021/12/11 01:59:28;;;;;;;;;;;20.30;39.10;;;;;;5087932;28;20003;-60
2021/12/11 02:01:56;;;;;;;;;;;20.30;39.20;;;;;;5090626;28;19908;-61
2021/12/11 02:04:22;;;;;;;;;;;20.30;39.10;;;;;;5074146;28;19966;-60
2021/12/11 02:06:49;;;;;;;;;;;20.30;39.20;;;;;;5074835;28;19915;-60
2021/12/11 02:09:24;;;;;;;;;;;20.30;39.20;;;;;;5086163;28;20002;-61
2021/12/11 02:11:51;;;;;;;;;;;20.30;39.20;;;;;;5094926;28;19920;-60
2021/12/11 02:14:22;;;;;;;;;;;20.20;39.10;;;;;;5092878;28;19916;-60
2021/12/11 02:16:48;;;;;;;;;;;20.20;39.10;;;;;;5084290;28;19997;-61
2021/12/11 02:19:18;;;;;;;;;;;20.20;39.10;;;;;;5080908;28;19916;-61
2021/12/11 02:21:49;;;;;;;;;;;20.20;39.10;;;;;;5094141;28;19922;-60
2021/12/11 02:24:19;;;;;;;;;;;20.20;39.10;;;;;;5091998;28;20275;-60
2021/12/11 02:26:44;;;;;;;;;;;20.20;39.10;;;;;;5090325;28;19912;-60
2021/12/11 02:29:12;;;;;;;;;;;20.20;39.00;;;;;;5076541;28;20003;-61
2021/12/11 02:31:44;;;;;;;;;;;20.30;39.00;;;;;;5090002;28;20078;-60
2021/12/11 02:34:14;;;;;;;;;;;20.40;38.90;;;;;;5082225;28;19920;-61
2021/12/11 02:37:00;;;;;;;;;;;20.40;38.70;;;;;;5072996;28;20341;-60
2021/12/11 02:39:27;;;;;;;;;;;20.60;38.60;;;;;;5088111;28;19920;-61
2021/12/11 02:41:59;;;;;;;;;;;20.80;38.40;;;;;;5083834;28;19920;-61
2021/12/11 02:44:37;;;;;;;;;;;20.90;38.10;;;;;;5080947;28;20007;-60
2021/12/11 02:47:09;;;;;;;;;;;21.00;37.90;;;;;;5076764;28;20430;-61
2021/12/11 02:49:49;;;;;;;;;;;21.10;37.60;;;;;;5091261;28;19920;-60
2021/12/11 02:52:24;;;;;;;;;;;21.20;37.50;;;;;;5092095;28;19912;-62
2021/12/11 02:54:56;;;;;;;;;;;21.30;37.40;;;;;;5093977;28;19916;-61
2021/12/11 02:57:23;;;;;;;;;;;21.40;37.30;;;;;;5076145;28;19917;-61
2021/12/11 02:59:49;;;;;;;;;;;21.50;37.30;;;;;;5073688;28;20283;-60
2021/12/11 03:02:19;;;;;;;;;;;21.50;37.10;;;;;;5089929;28;19920;-61
2021/12/11 03:04:52;;;;;;;;;;;21.60;37.10;;;;;;5071706;28;20020;-61
2021/12/11 03:07:20;;;;;;;;;;;21.60;37.00;;;;;;5090592;28;19967;-61
2021/12/11 03:09:47;;;;;;;;;;;21.70;36.90;;;;;;5086593;28;19916;-61
2021/12/11 03:12:13;;;;;;;;;;;21.70;36.90;;;;;;5073618;28;19936;-61
2021/12/11 03:14:39;;;;;;;;;;;21.70;36.90;;;;;;5094995;28;19912;-61
2021/12/11 03:17:04;;;;;;;;;;;21.70;36.90;;;;;;5073523;28;19913;-61
2021/12/11 03:19:30;;;;;;;;;;;21.70;37.00;;;;;;5071334;28;19913;-61
2021/12/11 03:21:56;;;;;;;;;;;21.60;36.90;;;;;;5089740;28;19912;-61
2021/12/11 03:24:21;;;;;;;;;;;21.60;36.90;;;;;;5085086;28;19919;-60
2021/12/11 03:26:47;;;;;;;;;;;21.60;37.00;;;;;;5073388;28;20399;-60
2021/12/11 03:29:13;;;;;;;;;;;21.60;37.10;;;;;;5073298;28;20380;-60
2021/12/11 03:31:38;;;;;;;;;;;21.50;37.00;;;;;;5072084;28;19966;-61
2021/12/11 03:34:05;;;;;;;;;;;21.50;37.00;;;;;;5072765;28;19930;-61
2021/12/11 03:36:33;;;;;;;;;;;21.50;37.10;;;;;;5088653;28;19948;-60
2021/12/11 03:39:00;;;;;;;;;;;21.50;37.10;;;;;;5071836;28;19919;-61
2021/12/11 03:41:25;;;;;;;;;;;21.50;37.20;;;;;;5073053;28;19912;-62
2021/12/11 03:43:51;;;;;;;;;;;21.50;37.10;;;;;;5074087;28;19912;-60
2021/12/11 03:46:16;;;;;;;;;;;21.50;37.10;;;;;;5092040;28;19977;-61
2021/12/11 03:48:46;;;;;;;;;;;21.50;37.10;;;;;;5083691;28;20372;-61
2021/12/11 03:51:12;;;;;;;;;;;21.50;37.10;;;;;;5081213;28;20425;-61
2021/12/11 03:53:38;;;;;;;;;;;21.50;37.10;;;;;;5086762;28;19912;-60
2021/12/11 03:56:04;;;;;;;;;;;21.50;37.00;;;;;;5072248;28;19916;-60
2021/12/11 03:58:30;;;;;;;;;;;21.50;37.00;;;;;;5088295;28;20003;-61
2021/12/11 04:00:55;;;;;;;;;;;21.60;37.00;;;;;;5072666;28;20394;-61
2021/12/11 04:03:21;;;;;;;;;;;21.60;37.00;;;;;;5074067;28;19916;-61
2021/12/11 04:05:47;;;;;;;;;;;21.60;37.00;;;;;;5078946;28;20333;-61
2021/12/11 04:08:14;;;;;;;;;;;21.60;37.00;;;;;;5072647;28;19927;-60
2021/12/11 04:10:40;;;;;;;;;;;21.50;37.00;;;;;;5072349;28;20288;-61
2021/12/11 04:13:06;;;;;;;;;;;21.50;37.00;;;;;;5072236;28;19924;-61
2021/12/11 04:15:32;;;;;;;;;;;21.50;37.00;;;;;;5091796;28;20283;-61
2021/12/11 04:17:57;;;;;;;;;;;21.50;37.00;;;;;;5091731;28;19912;-61
2021/12/11 04:20:23;;;;;;;;;;;21.50;37.10;;;;;;5073237;28;20356;-61
2021/12/11 04:22:49;;;;;;;;;;;21.50;37.10;;;;;;5071656;28;20288;-61
2021/12/11 04:25:15;;;;;;;;;;;21.50;37.10;;;;;;5092322;28;19918;-61
2021/12/11 04:27:41;;;;;;;;;;;21.50;37.10;;;;;;5087253;28;20016;-61
2021/12/11 04:30:08;;;;;;;;;;;21.50;37.10;;;;;;5072890;28;20007;-60
2021/12/11 04:32:34;;;;;;;;;;;21.40;37.10;;;;;;5087605;28;19962;-60
2021/12/11 04:35:00;;;;;;;;;;;21.40;37.20;;;;;;5071442;28;19908;-61
2021/12/11 04:37:28;;;;;;;;;;;21.30;37.40;;;;;;5092272;28;20288;-60
2021/12/11 04:39:58;;;;;;;;;;;21.20;37.50;;;;;;5088052;28;20018;-60
2021/12/11 04:45:09;;;;;;;;;;;21.00;37.70;;;;;;5096296;28;19953;-61
2021/12/11 04:47:48;;;;;;;;;;;21.00;37.70;;;;;;5090928;28;19919;-61
2021/12/11 04:50:20;;;;;;;;;;;21.10;37.70;;;;;;5072003;28;19935;-61
2021/12/11 05:00:31;;;;;;;;;;;21.40;37.30;;;;;;5089765;28;19908;-60
2021/12/11 05:10:55;;;;;;;;;;;21.60;37.00;;;;;;5083163;28;19916;-61
2021/12/11 05:13:21;;;;;;;;;;;21.60;36.90;;;;;;5075488;28;20445;-61
2021/12/11 05:15:47;;;;;;;;;;;21.60;36.80;;;;;;5088640;28;19920;-61
2021/12/11 05:18:14;;;;;;;;;;;21.60;36.90;;;;;;5090742;28;19912;-61
2021/12/11 05:20:40;;;;;;;;;;;21.60;36.90;;;;;;5077160;28;20362;-61
2021/12/11 05:23:05;;;;;;;;;;;21.60;36.90;;;;;;5095989;28;20384;-61
2021/12/11 05:25:31;;;;;;;;;;;21.60;36.90;;;;;;5092827;28;20019;-61
2021/12/11 05:27:56;;;;;;;;;;;21.60;36.90;;;;;;5095912;28;19908;-61
2021/12/11 05:30:23;;;;;;;;;;;21.50;36.90;;;;;;5094027;28;20364;-61
2021/12/11 05:32:49;;;;;;;;;;;21.50;36.90;;;;;;5091217;28;20041;-61
2021/12/11 05:35:14;;;;;;;;;;;21.50;36.80;;;;;;5073299;28;20003;-60
2021/12/11 05:37:40;;;;;;;;;;;21.50;36.90;;;;;;5075487;28;19926;-60
2021/12/11 05:40:06;;;;;;;;;;;21.50;36.90;;;;;;5090979;28;20066;-61
2021/12/11 05:42:31;;;;;;;;;;;21.50;36.90;;;;;;5075243;28;19927;-61
2021/12/11 05:44:57;;;;;;;;;;;21.50;37.00;;;;;;5086223;28;20398;-61
2021/12/11 05:47:22;;;;;;;;;;;21.50;37.00;;;;;;5095463;28;19938;-60
2021/12/11 05:49:49;;;;;;;;;;;21.50;37.00;;;;;;5082213;28;19998;-61
2021/12/11 05:52:14;;;;;;;;;;;21.50;37.00;;;;;;5073701;28;20406;-61
2021/12/11 05:54:40;;;;;;;;;;;21.50;36.90;;;;;;5099015;28;19956;-61
2021/12/11 05:57:07;;;;;;;;;;;21.50;36.90;;;;;;5075379;28;19960;-60
2021/12/11 05:59:33;;;;;;;;;;;21.50;36.90;;;;;;5074928;28;19912;-61
2021/12/11 06:02:09;;;;;;;;;;;21.50;36.80;;;;;;5090793;28;19918;-60
2021/12/11 06:04:35;;;;;;;;;;;21.60;37.50;;;;;;5096722;28;19980;-61
2021/12/11 06:07:01;;;;;;;;;;;21.60;36.80;;;;;;5080265;28;20253;-61
2021/12/11 06:09:26;;;;;;;;;;;21.60;36.80;;;;;;5090093;28;20352;-61
2021/12/11 06:11:54;;;;;;;;;;;21.60;36.70;;;;;;5086421;28;20360;-61
2021/12/11 06:14:20;;;;;;;;;;;21.60;36.70;;;;;;5084687;28;19923;-61
2021/12/11 06:16:46;;;;;;;;;;;21.60;36.60;;;;;;5092809;28;20377;-61
2021/12/11 06:19:11;;;;;;;;;;;21.60;36.70;;;;;;5092232;28;20006;-61
2021/12/11 06:21:37;;;;;;;;;;;21.60;36.70;;;;;;5082732;28;19916;-61
2021/12/11 06:24:02;;;;;;;;;;;21.60;36.60;;;;;;5073865;28;20288;-60
2021/12/11 06:26:28;;;;;;;;;;;21.60;36.60;;;;;;5074490;28;19908;-61
2021/12/11 06:28:53;;;;;;;;;;;21.60;36.50;;;;;;5078665;28;19992;-61
2021/12/11 06:31:19;;;;;;;;;;;21.60;36.60;;;;;;5083262;28;19919;-61
2021/12/11 06:33:46;;;;;;;;;;;21.60;36.60;;;;;;5093760;28;19909;-61
2021/12/11 06:36:13;;;;;;;;;;;21.60;36.60;;;;;;5085605;28;19924;-61
2021/12/11 06:38:38;;;;;;;;;;;21.60;36.70;;;;;;5073697;28;19916;-61
2021/12/11 06:41:04;;;;;;;;;;;21.60;36.70;;;;;;5074390;28;19919;-61
2021/12/11 06:43:30;;;;;;;;;;;21.50;36.60;;;;;;5089841;28;20016;-61
2021/12/11 06:45:55;;;;;;;;;;;21.50;36.60;;;;;;5087189;28;20388;-61
2021/12/11 06:48:21;;;;;;;;;;;21.50;36.60;;;;;;5073610;28;19908;-61
2021/12/11 06:50:46;;;;;;;;;;;21.50;36.60;;;;;;5089961;28;19913;-61
2021/12/11 06:53:14;;;;;;;;;;;21.50;36.60;;;;;;5091712;28;20368;-61
2021/12/11 06:55:40;;;;;;;;;;;21.50;36.60;;;;;;5092025;28;20007;-61
2021/12/11 06:58:05;;;;;;;;;;;21.50;36.50;;;;;;5092874;28;20000;-61
2021/12/11 07:00:31;;;;;;;;;;;21.50;36.50;;;;;;5091151;28;19919;-61
2021/12/11 07:02:56;;;;;;;;;;;21.50;36.50;;;;;;5075294;28;20288;-60
2021/12/11 07:05:22;;;;;;;;;;;21.50;36.50;;;;;;5073147;28;19912;-60
2021/12/11 07:07:47;;;;;;;;;;;21.50;36.50;;;;;;5072872;28;19968;-61
2021/12/11 07:10:14;;;;;;;;;;;21.50;36.40;;;;;;5073713;28;19921;-61
2021/12/11 07:12:39;;;;;;;;;;;21.50;36.40;;;;;;5073651;28;20003;-61
2021/12/11 07:15:05;;;;;;;;;;;21.50;36.40;;;;;;5084521;28;20053;-61
2021/12/11 07:17:30;;;;;;;;;;;21.50;36.30;;;;;;5073471;28;19917;-61
2021/12/11 07:19:56;;;;;;;;;;;21.60;36.40;;;;;;5084868;28;19943;-61
2021/12/11 07:22:21;;;;;;;;;;;21.50;36.40;;;;;;5072298;28;19915;-61
2021/12/11 07:24:57;;;;;;;;;;;21.50;36.40;;;;;;5088001;28;20394;-61
2021/12/11 07:27:23;;;;;;;;;;;21.60;36.40;;;;;;5093601;28;20367;-61
2021/12/11 07:29:48;;;;;;;;;;;21.50;36.40;;;;;;5059415;28;19920;-61
2021/12/11 07:32:14;;;;;;;;;;;21.50;36.40;;;;;;5073205;28;19909;-61
2021/12/11 07:34:39;;;;;;;;;;;21.50;36.40;;;;;;5095347;28;19913;-60
2021/12/11 07:37:05;;;;;;;;;;;21.50;36.50;;;;;;5084296;28;19912;-61
2021/12/11 07:39:30;;;;;;;;;;;21.50;36.50;;;;;;5073105;28;19916;-61
2021/12/11 07:41:56;;;;;;;;;;;21.50;36.50;;;;;;5093690;28;19961;-61
2021/12/11 07:44:22;;;;;;;;;;;21.50;36.50;;;;;;5096149;28;19958;-61
2021/12/11 07:46:47;;;;;;;;;;;21.50;36.50;;;;;;5074011;28;19917;-61
2021/12/11 07:49:13;;;;;;;;;;;21.50;36.50;;;;;;5071811;28;20011;-61
2021/12/11 07:51:38;;;;;;;;;;;21.50;36.50;;;;;;5071569;28;19914;-61
2021/12/11 07:54:04;;;;;;;;;;;21.50;36.50;;;;;;5084780;28;19912;-61
2021/12/11 07:56:29;;;;;;;;;;;21.50;36.50;;;;;;5091696;28;19968;-60
2021/12/11 07:58:56;;;;;;;;;;;21.50;36.50;;;;;;5091804;28;20356;-61
2021/12/11 08:01:21;;;;;;;;;;;21.50;36.50;;;;;;5074156;28;19912;-61
2021/12/11 08:03:47;;;;;;;;;;;21.50;36.40;;;;;;5077279;28;20285;-60
2021/12/11 08:06:12;;;;;;;;;;;21.50;36.40;;;;;;5073475;28;19995;-61
2021/12/11 08:08:38;;;;;;;;;;;21.50;36.50;;;;;;5091629;28;19908;-61
2021/12/11 08:11:04;;;;;;;;;;;21.50;36.40;;;;;;5072487;28;19912;-60
2021/12/11 08:13:29;;;;;;;;;;;21.50;36.40;;;;;;5070800;28;19951;-62
2021/12/11 08:15:56;;;;;;;;;;;21.50;36.40;;;;;;5092087;28;19912;-61
2021/12/11 08:18:21;;;;;;;;;;;21.50;36.40;;;;;;5090811;28;20284;-61
2021/12/11 08:20:48;;;;;;;;;;;21.50;36.40;;;;;;5071980;28;21467;-61
2021/12/11 08:23:14;;;;;;;;;;;21.50;36.40;;;;;;5071571;28;20011;-60
2021/12/11 08:25:40;;;;;;;;;;;21.50;36.40;;;;;;5072030;28;19908;-61
2021/12/11 08:28:06;;;;;;;;;;;21.60;36.40;;;;;;5072303;28;20253;-61
2021/12/11 08:30:32;;;;;;;;;;;21.60;36.40;;;;;;5078092;28;20333;-61
2021/12/11 08:32:58;;;;;;;;;;;21.50;36.40;;;;;;5090454;28;19918;-60
2021/12/11 08:35:23;;;;;;;;;;;21.50;36.40;;;;;;5098006;28;20007;-61
2021/12/11 08:37:50;;;;;;;;;;;21.50;36.40;;;;;;5070887;28;19999;-61
2021/12/11 08:40:20;;;;;;;;;;;21.50;36.40;;;;;;5082045;28;19908;-61
2021/12/11 08:42:46;;;;;;;;;;;21.60;36.40;;;;;;5072536;28;19932;-60
2021/12/11 08:45:20;;;;;;;;;;;21.60;36.50;;;;;;5083668;28;19999;-61
2021/12/11 08:47:46;;;;;;;;;;;21.60;36.50;;;;;;5091199;28;20002;-60
2021/12/11 08:50:13;;;;;;;;;;;21.60;36.40;;;;;;5082216;28;20410;-61
2021/12/11 08:52:39;;;;;;;;;;;21.60;36.50;;;;;;5082751;28;19912;-61
2021/12/11 08:55:06;;;;;;;;;;;21.60;36.70;;;;;;5081267;28;19998;-60
2021/12/11 08:57:32;;;;;;;;;;;21.60;36.80;;;;;;5064748;28;19916;-61
2021/12/11 09:00:03;;;;;;;;;;;21.60;37.00;;;;;;5077015;28;20379;-60
2021/12/11 09:02:33;;;;;;;;;;;21.60;37.10;;;;;;5085917;28;19913;-61
2021/12/11 09:05:05;;;;;;;;;;;21.60;37.20;;;;;;5082699;28;19912;-61
2021/12/11 09:07:33;;;;;;;;;;;21.60;37.20;;;;;;5090598;28;19912;-61
2021/12/11 09:10:07;;;;;;;;;;;21.60;37.30;;;;;;5080893;28;19973;-60
2021/12/11 09:12:34;;;;;;;;;;;21.50;37.20;;;;;;5082865;28;20041;-61
2021/12/11 09:15:32;;;;;;;;;;;21.60;37.30;;;;;;5078923;28;19927;-60
2021/12/11 09:17:59;;;;;;;;;;;21.60;37.30;;;;;;5043426;28;19920;-61
2021/12/11 09:20:27;;;;;;;;;;;21.50;37.30;;;;;;5073083;28;20364;-60
2021/12/11 09:23:13;;;;;;;;;;;21.50;37.30;;;;;;5078238;28;20009;-61
2021/12/11 09:25:42;;;;;;;;;;;21.60;37.40;;;;;;5075049;28;20371;-61
2021/12/11 09:28:09;;;;;;;;;;;21.60;37.40;;;;;;5086745;28;19939;-61
2021/12/11 09:30:37;;;;;;;;;;;21.60;37.40;;;;;;5079713;28;19912;-61
2021/12/11 09:33:05;;;;;;;;;;;21.60;37.40;;;;;;5087517;28;19920;-61
2021/12/11 09:35:31;;;;;;;;;;;21.60;37.40;;;;;;5072274;28;20384;-61
2021/12/11 09:37:59;;;;;;;;;;;21.60;37.40;;;;;;5075410;28;19924;-60
2021/12/11 09:40:34;;;;;;;;;;;21.60;37.40;;;;;;5097890;28;19908;-61
2021/12/11 09:43:00;;;;;;;;;;;21.60;37.40;;;;;;5089740;28;19912;-60
2021/12/11 09:45:26;;;;;;;;;;;21.60;37.40;;;;;;5083746;28;20006;-61
2021/12/11 09:48:02;;;;;;;;;;;21.60;37.60;;;;;;5076572;28;20003;-62
2021/12/11 09:50:34;;;;;;;;;;;21.60;37.70;;;;;;5075739;28;19922;-62
2021/12/11 09:53:00;;;;;;;;;;;21.60;38.00;;;;;;5082321;28;19991;-62
2021/12/11 09:55:27;;;;;;;;;;;21.60;38.20;;;;;;5091345;28;20425;-62
2021/12/11 09:57:54;;;;;;;;;;;21.70;38.30;;;;;;5102248;28;19951;-61
2021/12/11 10:00:25;;;;;;;;;;;21.80;38.30;;;;;;5096386;28;19912;-62
2021/12/11 10:02:52;;;;;;;;;;;21.80;38.10;;;;;;5095264;28;20426;-62
2021/12/11 10:05:34;;;;;;;;;;;21.90;38.10;;;;;;5112584;28;19911;-62
2021/12/11 10:08:26;;;;;;;;;;;22.00;38.00;;;;;;5086254;28;19963;-62
2021/12/11 10:10:50;;;;;;;;;;;22.00;38.10;;;;;;5079594;28;19915;-61
2021/12/11 10:13:15;;;;;;;;;;;22.10;38.10;;;;;;5092841;28;19920;-62
2021/12/11 10:15:42;;;;;;;;;;;22.10;38.10;;;;;;5090917;28;19982;-62
2021/12/11 10:18:08;;;;;;;;;;;22.10;38.20;;;;;;5094146;28;19908;-62
2021/12/11 10:20:39;;;;;;;;;;;22.10;38.40;;;;;;5091683;28;20427;-62
2021/12/11 10:23:06;;;;;;;;;;;22.20;38.40;;;;;;5091481;28;19912;-61
2021/12/11 10:25:32;;;;;;;;;;;22.20;38.40;;;;;;5085435;28;19977;-61
2021/12/11 10:27:58;;;;;;;;;;;22.20;38.40;;;;;;5080280;28;20984;-62
2021/12/11 10:30:24;;;;;;;;;;;22.20;38.50;;;;;;5093055;28;19923;-61
2021/12/11 10:32:49;;;;;;;;;;;22.20;38.40;;;;;;5078301;28;19919;-62
2021/12/11 10:35:16;;;;;;;;;;;22.20;38.50;;;;;;5084870;28;19909;-63
2021/12/11 10:37:42;;;;;;;;;;;22.20;38.60;;;;;;5087129;28;19916;-62
2021/12/11 10:40:13;;;;;;;;;;;22.20;38.60;;;;;;5093677;28;20213;-62
2021/12/11 10:42:39;;;;;;;;;;;22.20;38.70;;;;;;5097793;28;19912;-62
2021/12/11 10:45:05;;;;;;;;;;;22.20;38.70;;;;;;5097420;28;20003;-62
2021/12/11 10:47:33;;;;;;;;;;;22.20;38.70;;;;;;5092936;28;19920;-62
2021/12/11 10:49:59;;;;;;;;;;;22.20;38.70;;;;;;5077696;28;19912;-62
2021/12/11 10:52:26;;;;;;;;;;;22.20;38.80;;;;;;5086758;28;20342;-62
2021/12/11 10:54:52;;;;;;;;;;;22.20;38.80;;;;;;5068285;28;20284;-62
2021/12/11 10:57:17;;;;;;;;;;;22.20;38.80;;;;;;5085097;28;20395;-62
2021/12/11 10:59:43;;;;;;;;;;;22.20;38.90;;;;;;5073410;28;19912;-62
2021/12/11 11:02:09;;;;;;;;;;;22.20;38.90;;;;;;5085366;28;19920;-62
2021/12/11 11:04:36;;;;;;;;;;;22.20;38.90;;;;;;5080351;28;19912;-62
2021/12/11 11:07:02;;;;;;;;;;;22.30;38.90;;;;;;5093738;28;20261;-63
2021/12/11 11:09:28;;;;;;;;;;;22.30;38.80;;;;;;5089279;28;20003;-62
2021/12/11 11:11:55;;;;;;;;;;;22.30;38.90;;;;;;5092380;28;19920;-62
2021/12/11 11:14:21;;;;;;;;;;;22.20;38.70;;;;;;5090525;28;19916;-63
2021/12/11 11:16:51;;;;;;;;;;;22.20;38.70;;;;;;5093417;28;19912;-63
2021/12/11 11:19:18;;;;;;;;;;;22.20;38.70;;;;;;5092836;28;19963;-63
2021/12/11 11:21:44;;;;;;;;;;;22.20;38.70;;;;;;5096698;28;20352;-63
2021/12/11 11:24:10;;;;;;;;;;;22.20;38.90;;;;;;5091037;28;19967;-63
2021/12/11 11:26:36;;;;;;;;;;;22.20;38.90;;;;;;5090576;28;19920;-62
2021/12/11 11:29:03;;;;;;;;;;;22.20;39.00;;;;;;5092798;28;19942;-62
2021/12/11 11:31:34;;;;;;;;;;;22.20;39.00;;;;;;5084316;28;19912;-63
2021/12/11 11:34:00;;;;;;;;;;;22.20;38.90;;;;;;5094536;28;19999;-62
2021/12/11 11:36:26;;;;;;;;;;;22.20;38.90;;;;;;5093613;28;20358;-62
2021/12/11 11:38:54;;;;;;;;;;;22.30;38.90;;;;;;5092919;28;20322;-61
2021/12/11 11:41:21;;;;;;;;;;;22.30;38.70;;;;;;5093162;28;19909;-63
2021/12/11 11:43:46;;;;;;;;;;;22.30;38.70;;;;;;5086408;28;20003;-63
2021/12/11 11:46:12;;;;;;;;;;;22.30;38.70;;;;;;5089597;28;19956;-63
2021/12/11 11:48:38;;;;;;;;;;;22.30;38.70;;;;;;5088431;28;19919;-62
2021/12/11 11:51:05;;;;;;;;;;;22.30;38.70;;;;;;5092482;28;19916;-63
2021/12/11 11:53:31;;;;;;;;;;;22.30;38.70;;;;;;5088755;28;19978;-62
2021/12/11 11:56:05;;;;;;;;;;;22.30;38.70;;;;;;5089937;28;19951;-62
2021/12/11 11:58:31;;;;;;;;;;;22.30;38.70;;;;;;5092268;28;19962;-62
2021/12/11 12:00:58;;;;;;;;;;;22.30;38.60;;;;;;5078280;28;19913;-62
2021/12/11 12:03:25;;;;;;;;;;;22.30;38.70;;;;;;5090448;28;19919;-63
2021/12/11 12:05:51;;;;;;;;;;;22.30;38.70;;;;;;5085317;28;20297;-62
2021/12/11 12:08:17;;;;;;;;;;;22.30;38.70;;;;;;5085613;28;19943;-62
2021/12/11 12:10:42;;;;;;;;;;;22.30;38.70;;;;;;5081746;28;19916;-62
2021/12/11 12:13:09;;;;;;;;;;;22.30;38.60;;;;;;5087881;28;20376;-63
2021/12/11 12:15:42;;;;;;;;;;;22.30;38.60;;;;;;5081570;28;20003;-62
2021/12/11 12:18:08;;;;;;;;;;;22.30;38.70;;;;;;5078425;28;20372;-62
2021/12/11 12:20:34;;;;;;;;;;;22.30;38.60;;;;;;5081387;28;20006;-63
2021/12/11 12:23:00;;;;;;;;;;;22.30;38.60;;;;;;5092393;28;19947;-62
2021/12/11 12:25:25;;;;;;;;;;;22.30;38.60;;;;;;5091866;28;19994;-62
2021/12/11 12:27:51;;;;;;;;;;;22.30;38.70;;;;;;5077325;28;19912;-62
2021/12/11 12:30:22;;;;;;;;;;;22.30;38.70;;;;;;5083351;28;19918;-62
2021/12/11 12:32:50;;;;;;;;;;;22.30;38.60;;;;;;5084812;28;20371;-62
2021/12/11 12:35:16;;;;;;;;;;;22.30;38.50;;;;;;5082947;28;19912;-63
2021/12/11 12:37:42;;;;;;;;;;;22.30;38.60;;;;;;5086680;28;20018;-62
2021/12/11 12:40:09;;;;;;;;;;;22.30;38.60;;;;;;5077534;28;19916;-62
2021/12/11 12:42:37;;;;;;;;;;;22.30;38.50;;;;;;5079968;28;19920;-62
2021/12/11 12:45:14;;;;;;;;;;;22.30;38.50;;;;;;5082298;28;20007;-62
2021/12/11 12:47:41;;;;;;;;;;;22.30;38.50;;;;;;5072784;28;19913;-62
2021/12/11 12:50:11;;;;;;;;;;;22.30;38.40;;;;;;5086802;28;20364;-63
2021/12/11 12:52:39;;;;;;;;;;;22.30;38.40;;;;;;5090890;28;19912;-63
2021/12/11 12:55:06;;;;;;;;;;;22.30;38.40;;;;;;5091427;28;19920;-62
2021/12/11 12:57:32;;;;;;;;;;;22.30;38.40;;;;;;5085137;28;19970;-62
2021/12/11 13:00:07;;;;;;;;;;;22.40;38.30;;;;;;5085832;28;19912;-63
2021/12/11 13:02:35;;;;;;;;;;;22.40;38.40;;;;;;5078673;28;19916;-63
2021/12/11 13:05:11;;;;;;;;;;;22.40;38.40;;;;;;5089345;28;20397;-62
2021/12/11 13:07:37;;;;;;;;;;;22.40;38.40;;;;;;5090145;28;19912;-62
2021/12/11 13:10:06;;;;;;;;;;;22.40;38.40;;;;;;5078987;28;19974;-62
2021/12/11 13:12:33;;;;;;;;;;;22.40;38.30;;;;;;5090862;28;19924;-63
2021/12/11 13:15:00;;;;;;;;;;;22.40;38.30;;;;;;5091096;28;20350;-63
2021/12/11 13:17:27;;;;;;;;;;;22.40;38.30;;;;;;5091440;28;19912;-64
2021/12/11 13:19:54;;;;;;;;;;;22.40;38.30;;;;;;5080296;28;19923;-64
2021/12/11 13:22:22;;;;;;;;;;;22.40;38.30;;;;;;5087650;28;19957;-62
2021/12/11 13:24:49;;;;;;;;;;;22.40;38.30;;;;;;5086574;28;19908;-63
2021/12/11 13:27:15;;;;;;;;;;;22.40;38.30;;;;;;5081080;28;19919;-63
2021/12/11 13:29:41;;;;;;;;;;;22.40;38.30;;;;;;5091503;28;19993;-64
2021/12/11 13:32:08;;;;;;;;;;;22.40;38.30;;;;;;5106566;28;20390;-63
2021/12/11 13:34:35;;;;;;;;;;;22.40;38.30;;;;;;5091067;28;20284;-63
2021/12/11 13:37:01;;;;;;;;;;;22.40;38.30;;;;;;5081825;28;19912;-62
2021/12/11 13:39:26;;;;;;;;;;;22.40;38.30;;;;;;5094079;28;19915;-63
2021/12/11 13:41:59;;;;;;;;;;;22.40;38.40;;;;;;5109604;28;19908;-64
2021/12/11 13:44:29;;;;;;;;;;;22.40;38.40;;;;;;5100839;28;20018;-62
2021/12/11 13:46:54;;;;;;;;;;;22.40;38.40;;;;;;5094044;28;20042;-62
2021/12/11 13:49:20;;;;;;;;;;;22.40;38.40;;;;;;5086081;28;20014;-62
2021/12/11 13:51:45;;;;;;;;;;;22.40;38.40;;;;;;5089869;28;19912;-63
2021/12/11 13:54:11;;;;;;;;;;;22.40;38.40;;;;;;5094512;28;19914;-63
2021/12/11 13:56:44;;;;;;;;;;;22.40;38.40;;;;;;5095200;28;19968;-63
2021/12/11 13:59:10;;;;;;;;;;;22.40;38.40;;;;;;5081399;28;20377;-64
2021/12/11 14:01:36;;;;;;;;;;;22.40;38.40;;;;;;5089915;28;20001;-63
2021/12/11 14:04:01;;;;;;;;;;;22.40;38.40;;;;;;5082893;28;19958;-63
2021/12/11 14:06:27;;;;;;;;;;;22.40;38.40;;;;;;5078976;28;19917;-63
2021/12/11 14:09:05;;;;;;;;;;;22.40;38.50;;;;;;5077707;28;19916;-63
2021/12/11 14:11:30;;;;;;;;;;;22.40;38.50;;;;;;5099329;28;19919;-63
2021/12/11 14:13:56;;;;;;;;;;;22.40;38.50;;;;;;5091452;28;19920;-63
2021/12/11 14:16:23;;;;;;;;;;;22.40;38.40;;;;;;5094463;28;20010;-63
2021/12/11 14:18:49;;;;;;;;;;;22.40;38.50;;;;;;5091834;28;19908;-63
2021/12/11 14:21:15;;;;;;;;;;;22.40;38.50;;;;;;5081619;28;19938;-63
2021/12/11 14:23:41;;;;;;;;;;;22.40;38.50;;;;;;5094239;28;20002;-63
2021/12/11 14:26:07;;;;;;;;;;;22.40;38.50;;;;;;5094277;28;19961;-63
2021/12/11 14:28:32;;;;;;;;;;;22.40;38.40;;;;;;5089574;28;19916;-63
2021/12/11 14:30:59;;;;;;;;;;;22.40;38.50;;;;;;5073650;28;19912;-63
2021/12/11 14:33:25;;;;;;;;;;;22.40;38.40;;;;;;5096408;28;19923;-63
2021/12/11 14:35:51;;;;;;;;;;;22.40;38.40;;;;;;5071594;28;19915;-63